createdAt,value
2019-05-29T00:02:16.415Z,85.00
2019-05-29T00:06:25.252Z,85.40
2019-05-29T00:10:34.093Z,85.90
2019-05-29T00:14:43.104Z,86.30
2019-05-29T00:18:51.996Z,88.00
2019-05-29T00:23:00.921Z,88.10
2019-05-29T00:27:12.923Z,88.80
2019-05-29T00:31:20.537Z,89.20
2019-05-29T00:35:29.444Z,89.40
2019-05-29T00:39:38.592Z,89.60
2019-05-29T00:43:47.499Z,89.70
2019-05-29T00:47:56.435Z,90.00
2019-05-29T00:52:05.264Z,90.40
2019-05-29T00:56:14.665Z,90.50
2019-05-29T01:00:23.833Z,90.60
2019-05-29T01:04:32.981Z,90.80
2019-05-29T01:08:41.888Z,90.70
2019-05-29T01:12:50.838Z,90.70
2019-05-29T01:16:59.854Z,90.70
2019-05-29T01:21:08.983Z,90.90
2019-05-29T01:25:18.798Z,91.00
2019-05-29T01:29:28.058Z,90.90
2019-05-29T01:33:36.912Z,91.10
2019-05-29T01:37:45.754Z,91.10
2019-05-29T01:41:54.660Z,91.20
2019-05-29T01:46:03.602Z,91.00
2019-05-29T01:50:12.698Z,90.90
2019-05-29T01:54:21.751Z,91.50
2019-05-29T01:58:30.938Z,91.20
2019-05-29T02:02:40.081Z,91.10
2019-05-29T02:06:49.170Z,91.40
2019-05-29T02:10:58.418Z,91.50
2019-05-29T02:15:23.018Z,91.30
2019-05-29T02:19:19.988Z,91.30
2019-05-29T02:23:29.152Z,91.40
2019-05-29T02:27:38.120Z,91.20
2019-05-29T02:31:47.033Z,91.00
2019-05-29T02:35:56.108Z,91.10
2019-05-29T02:40:05.747Z,91.40
2019-05-29T02:44:14.753Z,91.60
2019-05-29T02:48:25.084Z,91.70
2019-05-29T02:52:34.601Z,91.70
2019-05-29T02:56:43.566Z,91.50
2019-05-29T03:00:54.531Z,91.50
2019-05-29T03:05:03.864Z,91.50
2019-05-29T03:09:12.788Z,91.50
2019-05-29T03:13:23.136Z,91.50
2019-05-29T03:17:33.684Z,91.50
2019-05-29T03:21:42.791Z,91.70
2019-05-29T03:25:51.713Z,91.40
2019-05-29T03:30:00.542Z,91.40
2019-05-29T03:34:09.392Z,91.40
2019-05-29T03:38:18.293Z,91.20
2019-05-29T03:42:28.272Z,91.30
2019-05-29T03:46:44.619Z,91.40
2019-05-29T03:50:48.226Z,91.20
2019-05-29T03:54:57.045Z,91.00
2019-05-29T03:59:06.221Z,91.00
2019-05-29T04:03:15.116Z,90.90
2019-05-29T04:07:24.225Z,90.80
2019-05-29T04:11:33.270Z,90.70
2019-05-29T04:15:44.685Z,90.90
2019-05-29T04:19:53.733Z,90.40
2019-05-29T04:24:05.826Z,90.20
2019-05-29T04:28:14.738Z,90.00
2019-05-29T04:32:23.711Z,89.60
2019-05-29T04:36:33.364Z,88.80
2019-05-29T04:40:43.196Z,88.10
2019-05-29T04:44:52.100Z,87.90
2019-05-29T04:49:01.008Z,87.30
2019-05-29T04:53:09.829Z,87.00
2019-05-29T04:57:18.644Z,86.60
2019-05-29T05:01:27.475Z,86.30
2019-05-29T05:05:37.429Z,85.50
2019-05-29T05:09:46.362Z,84.90
2019-05-29T05:13:55.433Z,80.30
2019-05-29T05:18:07.031Z,76.90
2019-05-29T05:22:16.026Z,76.20
2019-05-29T05:26:24.881Z,76.20
2019-05-29T05:30:34.403Z,76.60
2019-05-29T05:34:43.459Z,76.80
2019-05-29T05:38:52.310Z,76.60
2019-05-29T05:43:01.179Z,76.30
2019-05-29T05:47:10.070Z,75.70
2019-05-29T05:51:19.271Z,75.00
2019-05-29T05:55:28.144Z,74.50
2019-05-29T05:59:37.698Z,74.00
2019-05-29T06:03:46.779Z,73.50
2019-05-29T06:07:55.901Z,73.90
2019-05-29T06:12:05.108Z,73.70
2019-05-29T06:16:14.035Z,74.30
2019-05-29T06:20:22.967Z,74.10
2019-05-29T06:24:33.432Z,72.30
2019-05-29T06:28:43.467Z,71.70
2019-05-29T06:32:52.965Z,70.10
2019-05-29T06:37:02.095Z,69.30
2019-05-29T06:41:11.010Z,67.70
2019-05-29T06:45:25.067Z,66.90
2019-05-29T06:49:33.951Z,66.60
2019-05-29T06:53:43.938Z,65.80
2019-05-29T06:57:52.939Z,64.90
2019-05-29T07:02:02.188Z,63.80
2019-05-29T07:06:11.131Z,63.50
2019-05-29T07:10:20.212Z,62.40
2019-05-29T07:14:29.098Z,61.10
2019-05-29T07:18:38.659Z,58.70
2019-05-29T07:22:47.586Z,57.90
2019-05-29T07:26:56.548Z,57.40
2019-05-29T07:31:06.647Z,56.30
2019-05-29T07:35:15.637Z,56.30
2019-05-29T07:39:24.570Z,56.20
2019-05-29T07:43:33.553Z,55.20
2019-05-29T07:47:42.859Z,54.00
2019-05-29T07:51:53.475Z,53.90
2019-05-29T07:56:02.574Z,51.30
2019-05-29T08:00:11.744Z,50.70
2019-05-29T08:04:20.668Z,51.10
2019-05-29T08:08:29.588Z,50.40
2019-05-29T08:12:42.460Z,48.40
2019-05-29T08:16:50.164Z,46.00
2019-05-29T08:20:59.064Z,46.60
2019-05-29T08:25:08.260Z,46.80
2019-05-29T08:29:17.482Z,46.10
2019-05-29T08:33:26.649Z,44.50
2019-05-29T08:37:35.661Z,45.10
2019-05-29T08:41:47.743Z,45.20
2019-05-29T08:45:55.177Z,44.60
2019-05-29T08:50:17.482Z,44.50
2019-05-29T08:54:24.055Z,44.50
2019-05-29T08:58:25.915Z,43.70
2019-05-29T09:02:34.904Z,42.30
2019-05-29T09:06:44.705Z,44.00
2019-05-29T09:10:54.429Z,41.80
2019-05-29T09:15:03.956Z,40.70
2019-05-29T09:19:14.183Z,41.00
2019-05-29T09:23:23.578Z,40.50
2019-05-29T09:27:32.605Z,40.80
2019-05-29T09:31:41.503Z,41.80
2019-05-29T09:35:50.413Z,41.40
2019-05-29T09:39:59.236Z,41.00
2019-05-29T09:44:08.428Z,40.30
2019-05-29T09:48:20.115Z,39.00
2019-05-29T09:52:30.618Z,38.50
2019-05-29T09:56:38.607Z,39.10
2019-05-29T10:00:47.810Z,39.40
2019-05-29T10:04:58.148Z,37.80
2019-05-29T10:09:08.474Z,39.10
2019-05-29T10:13:17.418Z,38.70
2019-05-29T10:17:26.309Z,37.80
2019-05-29T10:21:40.651Z,37.50
2019-05-29T10:25:46.008Z,37.80
2019-05-29T10:29:55.018Z,37.50
2019-05-29T10:34:03.993Z,38.20
2019-05-29T10:38:12.919Z,37.00
2019-05-29T10:42:21.776Z,35.30
2019-05-29T10:46:30.620Z,34.80
2019-05-29T10:50:39.604Z,34.90
2019-05-29T10:54:48.581Z,35.20
2019-05-29T10:58:59.799Z,36.10
2019-05-29T11:03:20.003Z,35.80
2019-05-29T11:07:29.691Z,33.80
2019-05-29T11:11:39.082Z,32.40
2019-05-29T11:15:48.555Z,32.30
2019-05-29T11:19:58.301Z,33.50
2019-05-29T11:24:07.342Z,34.70
2019-05-29T11:28:16.298Z,34.80
2019-05-29T11:32:25.196Z,33.70
2019-05-29T11:36:34.194Z,33.30
2019-05-29T11:40:43.460Z,31.30
2019-05-29T11:44:53.468Z,31.70
2019-05-29T11:49:03.647Z,31.50
2019-05-29T11:53:12.783Z,32.10
2019-05-29T11:57:21.675Z,33.50
2019-05-29T12:01:48.637Z,34.30
2019-05-29T12:05:41.288Z,33.70
2019-05-29T12:09:51.364Z,35.20
2019-05-29T12:14:00.931Z,35.00
2019-05-29T12:18:23.129Z,34.00
2019-05-29T12:22:21.913Z,34.50
2019-05-29T12:26:30.864Z,34.90
2019-05-29T12:30:39.957Z,35.60
2019-05-29T12:34:53.697Z,34.50
2019-05-29T12:38:59.658Z,33.90
2019-05-29T12:43:25.921Z,32.90
2019-05-29T12:47:19.204Z,32.50
2019-05-29T12:51:28.044Z,31.60
2019-05-29T12:55:36.879Z,32.70
2019-05-29T12:59:45.785Z,31.20
2019-05-29T13:03:54.627Z,31.80
2019-05-29T13:08:05.150Z,32.40
2019-05-29T13:12:14.307Z,33.00
2019-05-29T13:16:23.460Z,33.00
2019-05-29T13:20:32.357Z,32.70
2019-05-29T13:24:41.281Z,34.10
2019-05-29T13:28:50.295Z,33.70
2019-05-29T13:33:03.117Z,33.70
2019-05-29T13:37:10.245Z,33.50
2019-05-29T13:41:19.144Z,33.10
2019-05-29T13:45:28.551Z,34.20
2019-05-29T13:49:37.463Z,32.30
2019-05-29T13:54:01.972Z,31.00
2019-05-29T13:57:57.606Z,31.50
2019-05-29T14:02:08.209Z,31.70
2019-05-29T14:06:17.314Z,32.60
2019-05-29T14:10:26.392Z,33.60
2019-05-29T14:14:35.394Z,33.60
2019-05-29T14:18:44.443Z,33.40
2019-05-29T14:22:53.287Z,33.30
2019-05-29T14:27:03.312Z,33.90
2019-05-29T14:31:12.592Z,32.60
2019-05-29T14:35:21.554Z,32.10
2019-05-29T14:39:30.471Z,33.20
2019-05-29T14:43:39.411Z,34.00
2019-05-29T14:47:48.341Z,33.20
2019-05-29T14:51:57.250Z,33.80
2019-05-29T14:56:06.746Z,34.80
2019-05-29T15:00:24.998Z,36.20
2019-05-29T15:04:26.869Z,36.10
2019-05-29T15:08:35.761Z,36.60
2019-05-29T15:12:44.577Z,36.90
2019-05-29T15:16:53.418Z,37.40
2019-05-29T15:21:02.322Z,37.20
2019-05-29T15:25:19.673Z,37.40
2019-05-29T15:29:21.981Z,37.40
2019-05-29T15:33:30.837Z,38.00
2019-05-29T15:37:40.140Z,38.50
2019-05-29T15:41:49.014Z,39.30
2019-05-29T15:45:57.840Z,37.50
2019-05-29T15:50:07.380Z,35.50
2019-05-29T15:54:17.527Z,34.60
2019-05-29T15:58:26.631Z,34.40
2019-05-29T16:02:35.628Z,34.50
2019-05-29T16:06:44.483Z,34.10
2019-05-29T16:10:53.333Z,35.30
2019-05-29T16:15:02.417Z,35.40
2019-05-29T16:19:12.074Z,37.00
2019-05-29T16:23:33.473Z,37.60
2019-05-29T16:27:32.143Z,38.20
2019-05-29T16:31:41.041Z,38.00
2019-05-29T16:35:49.986Z,37.80
2019-05-29T16:39:59.021Z,39.30
2019-05-29T16:44:08.061Z,40.20
2019-05-29T16:48:16.912Z,40.10
2019-05-29T16:52:25.889Z,40.50
2019-05-29T16:56:34.858Z,41.30
2019-05-29T17:00:43.851Z,41.30
2019-05-29T17:04:52.728Z,41.40
2019-05-29T17:09:01.562Z,41.20
2019-05-29T17:13:10.437Z,38.60
2019-05-29T17:17:20.663Z,37.70
2019-05-29T17:21:29.784Z,38.20
2019-05-29T17:25:38.838Z,40.20
2019-05-29T17:29:47.668Z,39.50
2019-05-29T17:33:56.567Z,40.60
2019-05-29T17:38:05.519Z,40.00
2019-05-29T17:42:15.977Z,41.20
2019-05-29T17:46:25.928Z,41.90
2019-05-29T17:50:35.124Z,42.80
2019-05-29T17:54:43.950Z,42.70
2019-05-29T17:58:52.777Z,42.70
2019-05-29T18:03:01.625Z,42.10
2019-05-29T18:07:10.637Z,40.00
2019-05-29T18:11:21.033Z,38.70
2019-05-29T18:15:30.132Z,39.30
2019-05-29T18:19:39.087Z,40.90
2019-05-29T18:23:47.993Z,42.40
2019-05-29T18:27:56.909Z,44.10
2019-05-29T18:32:05.755Z,44.90
2019-05-29T18:36:14.840Z,46.10
2019-05-29T18:40:24.359Z,47.40
2019-05-29T18:44:33.446Z,48.10
2019-05-29T18:48:42.385Z,48.60
2019-05-29T18:52:51.552Z,49.70
2019-05-29T18:57:14.430Z,50.50
2019-05-29T19:01:11.436Z,50.60
2019-05-29T19:05:21.477Z,51.10
2019-05-29T19:09:31.863Z,52.80
2019-05-29T19:13:41.183Z,53.00
2019-05-29T19:17:50.042Z,53.20
2019-05-29T19:21:59.005Z,53.80
2019-05-29T19:26:08.312Z,54.50
2019-05-29T19:30:19.296Z,55.20
2019-05-29T19:34:29.205Z,55.70
2019-05-29T19:38:38.483Z,56.60
2019-05-29T19:42:47.452Z,57.20
2019-05-29T19:46:56.544Z,57.80
2019-05-29T19:51:05.701Z,58.60
2019-05-29T19:55:16.336Z,59.80
2019-05-29T19:59:25.880Z,60.70
2019-05-29T20:03:34.944Z,61.10
2019-05-29T20:07:44.205Z,61.60
2019-05-29T20:11:53.015Z,61.90
2019-05-29T20:16:01.992Z,62.70
2019-05-29T20:20:11.324Z,63.60
2019-05-29T20:24:20.381Z,64.40
2019-05-29T20:28:30.079Z,65.30
2019-05-29T20:32:39.163Z,66.20
2019-05-29T20:36:48.409Z,66.90
2019-05-29T20:40:57.568Z,67.30
2019-05-29T20:45:07.544Z,67.70
2019-05-29T20:49:16.675Z,68.20
2019-05-29T20:53:25.900Z,68.60
2019-05-29T20:57:35.861Z,69.10
2019-05-29T21:01:47.345Z,69.90
2019-05-29T21:05:56.175Z,70.10
2019-05-29T21:10:05.655Z,70.40
2019-05-29T21:14:14.800Z,70.70
2019-05-29T21:18:24.084Z,71.10
2019-05-29T21:22:34.452Z,71.00
2019-05-29T21:26:43.577Z,71.30
2019-05-29T21:30:52.735Z,72.00
2019-05-29T21:35:01.806Z,72.30
2019-05-29T21:39:10.870Z,72.60
2019-05-29T21:43:20.058Z,72.90
2019-05-29T21:47:29.178Z,73.60
2019-05-29T21:51:39.331Z,74.20
2019-05-29T21:55:48.509Z,74.90
2019-05-29T21:59:57.560Z,74.80
2019-05-29T22:04:06.674Z,75.30
2019-05-29T22:08:15.851Z,75.30
2019-05-29T22:12:24.894Z,75.60
2019-05-29T22:16:33.898Z,75.80
2019-05-29T22:20:42.991Z,76.20
2019-05-29T22:24:53.072Z,77.40
2019-05-29T22:29:17.318Z,77.40
2019-05-29T22:33:12.956Z,78.10
2019-05-29T22:37:21.941Z,78.40
2019-05-29T22:41:31.033Z,78.40
2019-05-29T22:45:40.117Z,78.20
2019-05-29T22:49:49.183Z,78.80
2019-05-29T22:53:58.406Z,79.00
2019-05-29T22:58:07.592Z,79.00
2019-05-29T23:02:16.915Z,79.10
2019-05-29T23:06:26.015Z,79.60
2019-05-29T23:10:35.078Z,79.70
2019-05-29T23:14:44.205Z,80.10
2019-05-29T23:18:54.405Z,80.30
2019-05-29T23:23:03.640Z,80.80
2019-05-29T23:27:12.700Z,80.00
2019-05-29T23:31:22.133Z,80.40
2019-05-29T23:35:31.142Z,80.40
2019-05-29T23:39:40.251Z,80.70
2019-05-29T23:43:49.396Z,81.10
2019-05-29T23:47:59.544Z,80.60
2019-05-29T23:52:09.294Z,80.00
2019-05-29T23:56:18.469Z,80.40
